sensor_id;sensor_type;location;lat;lon;timestamp;P1;durP1;ratioP1;P2;durP2;ratioP2
36815;SDS011;71982;52.294;6.760;2023-09-19T00:00:42;11.70;;;3.83;;
36815;SDS011;71982;52.294;6.760;2023-09-19T00:03:12;18.65;;;2.90;;
36815;SDS011;71982;52.294;6.760;2023-09-19T00:05:39;15.18;;;3.13;;
36815;SDS011;71982;52.294;6.760;2023-09-19T00:08:09;13.23;;;3.40;;
36815;SDS011;71982;52.294;6.760;2023-09-19T00:10:38;11.25;;;3.00;;
36815;SDS011;71982;52.294;6.760;2023-09-19T00:13:06;14.07;;;3.42;;
36815;SDS011;71982;52.294;6.760;2023-09-19T00:15:38;9.57;;;2.72;;
36815;SDS011;71982;52.294;6.760;2023-09-19T00:18:08;12.38;;;3.13;;
36815;SDS011;71982;52.294;6.760;2023-09-19T00:20:36;11.50;;;2.50;;
36815;SDS011;71982;52.294;6.760;2023-09-19T00:23:03;7.85;;;2.65;;
36815;SDS011;71982;52.294;6.760;2023-09-19T00:25:34;12.98;;;2.42;;
36815;SDS011;71982;52.294;6.760;2023-09-19T00:28:02;10.98;;;2.55;;
36815;SDS011;71982;52.294;6.760;2023-09-19T00:30:30;8.65;;;2.78;;
36815;SDS011;71982;52.294;6.760;2023-09-19T00:32:58;6.60;;;2.00;;
36815;SDS011;71982;52.294;6.760;2023-09-19T00:35:27;9.75;;;2.20;;
36815;SDS011;71982;52.294;6.760;2023-09-19T00:37:55;12.85;;;2.40;;
36815;SDS011;71982;52.294;6.760;2023-09-19T00:40:22;8.10;;;2.33;;
36815;SDS011;71982;52.294;6.760;2023-09-19T00:42:51;10.38;;;2.10;;
36815;SDS011;71982;52.294;6.760;2023-09-19T00:45:27;7.32;;;2.22;;
36815;SDS011;71982;52.294;6.760;2023-09-19T00:47:54;17.70;;;3.67;;
36815;SDS011;71982;52.294;6.760;2023-09-19T00:50:24;14.93;;;3.30;;
36815;SDS011;71982;52.294;6.760;2023-09-19T00:52:55;18.98;;;4.22;;
36815;SDS011;71982;52.294;6.760;2023-09-19T00:55:22;9.05;;;2.70;;
36815;SDS011;71982;52.294;6.760;2023-09-19T00:57:50;12.90;;;2.80;;
36815;SDS011;71982;52.294;6.760;2023-09-19T01:00:19;12.93;;;2.63;;
36815;SDS011;71982;52.294;6.760;2023-09-19T01:02:46;13.35;;;3.20;;
36815;SDS011;71982;52.294;6.760;2023-09-19T01:05:14;9.40;;;2.70;;
36815;SDS011;71982;52.294;6.760;2023-09-19T01:07:41;9.40;;;2.38;;
36815;SDS011;71982;52.294;6.760;2023-09-19T01:10:12;14.43;;;3.33;;
36815;SDS011;71982;52.294;6.760;2023-09-19T01:12:45;6.88;;;2.50;;
36815;SDS011;71982;52.294;6.760;2023-09-19T01:15:19;15.48;;;2.65;;
36815;SDS011;71982;52.294;6.760;2023-09-19T01:17:57;8.35;;;2.70;;
36815;SDS011;71982;52.294;6.760;2023-09-19T01:20:34;10.05;;;2.40;;
36815;SDS011;71982;52.294;6.760;2023-09-19T01:23:10;10.82;;;3.28;;
36815;SDS011;71982;52.294;6.760;2023-09-19T01:25:49;10.05;;;2.88;;
36815;SDS011;71982;52.294;6.760;2023-09-19T01:28:31;10.57;;;2.90;;
36815;SDS011;71982;52.294;6.760;2023-09-19T01:31:03;9.63;;;2.53;;
36815;SDS011;71982;52.294;6.760;2023-09-19T01:33:53;7.32;;;2.00;;
36815;SDS011;71982;52.294;6.760;2023-09-19T01:36:25;10.02;;;2.60;;
36815;SDS011;71982;52.294;6.760;2023-09-19T01:38:58;17.90;;;2.97;;
36815;SDS011;71982;52.294;6.760;2023-09-19T01:41:33;6.80;;;2.40;;
36815;SDS011;71982;52.294;6.760;2023-09-19T01:44:13;10.75;;;2.63;;
36815;SDS011;71982;52.294;6.760;2023-09-19T01:49:37;16.00;;;3.80;;
36815;SDS011;71982;52.294;6.760;2023-09-19T01:52:12;9.40;;;2.75;;
36815;SDS011;71982;52.294;6.760;2023-09-19T01:54:41;10.32;;;2.63;;
36815;SDS011;71982;52.294;6.760;2023-09-19T01:57:14;18.92;;;3.53;;
36815;SDS011;71982;52.294;6.760;2023-09-19T01:59:45;11.98;;;2.80;;
36815;SDS011;71982;52.294;6.760;2023-09-19T02:02:19;11.07;;;3.00;;
36815;SDS011;71982;52.294;6.760;2023-09-19T02:04:47;14.45;;;2.90;;
36815;SDS011;71982;52.294;6.760;2023-09-19T02:07:17;13.70;;;3.20;;
36815;SDS011;71982;52.294;6.760;2023-09-19T02:09:44;16.50;;;4.07;;
36815;SDS011;71982;52.294;6.760;2023-09-19T02:12:13;14.57;;;3.15;;
36815;SDS011;71982;52.294;6.760;2023-09-19T02:14:40;15.10;;;3.78;;
36815;SDS011;71982;52.294;6.760;2023-09-19T02:17:07;16.60;;;3.47;;
36815;SDS011;71982;52.294;6.760;2023-09-19T02:19:38;15.25;;;3.55;;
36815;SDS011;71982;52.294;6.760;2023-09-19T02:22:07;15.63;;;3.80;;
36815;SDS011;71982;52.294;6.760;2023-09-19T02:24:36;17.23;;;3.85;;
36815;SDS011;71982;52.294;6.760;2023-09-19T02:27:04;14.13;;;3.53;;
36815;SDS011;71982;52.294;6.760;2023-09-19T02:29:32;11.85;;;3.38;;
36815;SDS011;71982;52.294;6.760;2023-09-19T02:32:00;13.00;;;3.28;;
36815;SDS011;71982;52.294;6.760;2023-09-19T02:34:27;15.98;;;3.78;;
36815;SDS011;71982;52.294;6.760;2023-09-19T02:36:56;16.08;;;3.88;;
36815;SDS011;71982;52.294;6.760;2023-09-19T02:39:22;20.45;;;4.43;;
36815;SDS011;71982;52.294;6.760;2023-09-19T02:41:49;18.60;;;3.78;;
36815;SDS011;71982;52.294;6.760;2023-09-19T02:44:16;18.33;;;4.10;;
36815;SDS011;71982;52.294;6.760;2023-09-19T02:46:45;13.77;;;3.65;;
36815;SDS011;71982;52.294;6.760;2023-09-19T02:49:11;16.55;;;3.67;;
36815;SDS011;71982;52.294;6.760;2023-09-19T02:51:39;22.17;;;3.45;;
36815;SDS011;71982;52.294;6.760;2023-09-19T02:54:07;15.68;;;4.45;;
36815;SDS011;71982;52.294;6.760;2023-09-19T02:56:34;17.80;;;4.10;;
36815;SDS011;71982;52.294;6.760;2023-09-19T02:59:02;16.17;;;4.25;;
36815;SDS011;71982;52.294;6.760;2023-09-19T03:01:29;18.27;;;3.88;;
36815;SDS011;71982;52.294;6.760;2023-09-19T03:03:55;19.85;;;3.85;;
36815;SDS011;71982;52.294;6.760;2023-09-19T03:06:23;15.23;;;3.55;;
36815;SDS011;71982;52.294;6.760;2023-09-19T03:08:50;15.68;;;4.07;;
36815;SDS011;71982;52.294;6.760;2023-09-19T03:11:18;17.65;;;3.83;;
36815;SDS011;71982;52.294;6.760;2023-09-19T03:13:50;13.88;;;3.97;;
36815;SDS011;71982;52.294;6.760;2023-09-19T03:16:18;20.52;;;4.82;;
36815;SDS011;71982;52.294;6.760;2023-09-19T03:18:46;14.65;;;4.10;;
36815;SDS011;71982;52.294;6.760;2023-09-19T03:21:13;23.13;;;4.70;;
36815;SDS011;71982;52.294;6.760;2023-09-19T03:23:40;21.13;;;3.90;;
36815;SDS011;71982;52.294;6.760;2023-09-19T03:26:08;19.55;;;3.63;;
36815;SDS011;71982;52.294;6.760;2023-09-19T03:28:36;17.48;;;4.10;;
36815;SDS011;71982;52.294;6.760;2023-09-19T03:31:04;16.90;;;3.65;;
36815;SDS011;71982;52.294;6.760;2023-09-19T03:33:32;23.42;;;4.28;;
36815;SDS011;71982;52.294;6.760;2023-09-19T03:35:59;21.15;;;4.38;;
36815;SDS011;71982;52.294;6.760;2023-09-19T03:38:26;22.25;;;4.40;;
36815;SDS011;71982;52.294;6.760;2023-09-19T03:40:54;12.52;;;3.58;;
36815;SDS011;71982;52.294;6.760;2023-09-19T03:43:20;16.08;;;3.28;;
36815;SDS011;71982;52.294;6.760;2023-09-19T03:45:49;21.30;;;4.65;;
36815;SDS011;71982;52.294;6.760;2023-09-19T03:48:16;18.08;;;3.78;;
36815;SDS011;71982;52.294;6.760;2023-09-19T03:50:44;19.48;;;3.33;;
36815;SDS011;71982;52.294;6.760;2023-09-19T03:53:11;17.58;;;4.28;;
36815;SDS011;71982;52.294;6.760;2023-09-19T03:55:38;21.77;;;4.57;;
36815;SDS011;71982;52.294;6.760;2023-09-19T03:58:05;16.73;;;3.92;;
36815;SDS011;71982;52.294;6.760;2023-09-19T04:00:32;17.90;;;3.92;;
36815;SDS011;71982;52.294;6.760;2023-09-19T04:03:01;17.08;;;3.72;;
36815;SDS011;71982;52.294;6.760;2023-09-19T04:05:31;18.63;;;3.38;;
36815;SDS011;71982;52.294;6.760;2023-09-19T04:07:58;14.40;;;3.03;;
36815;SDS011;71982;52.294;6.760;2023-09-19T04:10:25;19.13;;;3.58;;
36815;SDS011;71982;52.294;6.760;2023-09-19T04:12:52;12.20;;;2.95;;
36815;SDS011;71982;52.294;6.760;2023-09-19T04:15:19;17.65;;;4.05;;
36815;SDS011;71982;52.294;6.760;2023-09-19T04:17:48;20.67;;;3.90;;
36815;SDS011;71982;52.294;6.760;2023-09-19T04:20:16;14.70;;;2.97;;
36815;SDS011;71982;52.294;6.760;2023-09-19T04:22:44;14.63;;;3.25;;
36815;SDS011;71982;52.294;6.760;2023-09-19T04:25:11;17.77;;;3.13;;
36815;SDS011;71982;52.294;6.760;2023-09-19T04:27:38;18.15;;;3.80;;
36815;SDS011;71982;52.294;6.760;2023-09-19T04:30:07;17.52;;;3.35;;
36815;SDS011;71982;52.294;6.760;2023-09-19T04:32:37;20.65;;;3.08;;
36815;SDS011;71982;52.294;6.760;2023-09-19T04:35:05;16.65;;;3.33;;
36815;SDS011;71982;52.294;6.760;2023-09-19T04:37:36;23.48;;;3.90;;
36815;SDS011;71982;52.294;6.760;2023-09-19T04:40:06;15.73;;;3.42;;
36815;SDS011;71982;52.294;6.760;2023-09-19T04:42:37;15.32;;;2.83;;
36815;SDS011;71982;52.294;6.760;2023-09-19T04:45:06;20.55;;;4.32;;
36815;SDS011;71982;52.294;6.760;2023-09-19T04:47:34;26.33;;;3.45;;
36815;SDS011;71982;52.294;6.760;2023-09-19T04:50:05;13.98;;;3.50;;
36815;SDS011;71982;52.294;6.760;2023-09-19T04:52:37;15.13;;;3.17;;
36815;SDS011;71982;52.294;6.760;2023-09-19T04:55:07;18.90;;;3.95;;
36815;SDS011;71982;52.294;6.760;2023-09-19T04:57:35;16.23;;;3.33;;
36815;SDS011;71982;52.294;6.760;2023-09-19T05:00:04;17.92;;;3.13;;
36815;SDS011;71982;52.294;6.760;2023-09-19T05:02:37;16.42;;;4.05;;
36815;SDS011;71982;52.294;6.760;2023-09-19T05:05:05;13.90;;;2.95;;
36815;SDS011;71982;52.294;6.760;2023-09-19T05:07:33;14.52;;;3.22;;
36815;SDS011;71982;52.294;6.760;2023-09-19T05:10:04;18.85;;;3.90;;
36815;SDS011;71982;52.294;6.760;2023-09-19T05:12:32;18.98;;;3.90;;
36815;SDS011;71982;52.294;6.760;2023-09-19T05:15:00;20.42;;;4.35;;
36815;SDS011;71982;52.294;6.760;2023-09-19T05:17:28;14.98;;;3.13;;
36815;SDS011;71982;52.294;6.760;2023-09-19T05:19:55;21.52;;;3.30;;
36815;SDS011;71982;52.294;6.760;2023-09-19T05:22:22;18.42;;;3.65;;
36815;SDS011;71982;52.294;6.760;2023-09-19T05:24:49;14.50;;;3.28;;
36815;SDS011;71982;52.294;6.760;2023-09-19T05:27:20;12.75;;;2.90;;
36815;SDS011;71982;52.294;6.760;2023-09-19T05:29:51;17.92;;;2.80;;
36815;SDS011;71982;52.294;6.760;2023-09-19T05:32:18;13.20;;;3.30;;
36815;SDS011;71982;52.294;6.760;2023-09-19T05:34:48;14.30;;;3.10;;
36815;SDS011;71982;52.294;6.760;2023-09-19T05:37:18;15.88;;;2.97;;
36815;SDS011;71982;52.294;6.760;2023-09-19T05:39:47;15.40;;;2.95;;
36815;SDS011;71982;52.294;6.760;2023-09-19T05:42:15;12.55;;;2.67;;
36815;SDS011;71982;52.294;6.760;2023-09-19T05:44:43;12.93;;;2.80;;
36815;SDS011;71982;52.294;6.760;2023-09-19T05:47:10;18.00;;;3.03;;
36815;SDS011;71982;52.294;6.760;2023-09-19T05:49:38;15.00;;;3.28;;
36815;SDS011;71982;52.294;6.760;2023-09-19T05:52:06;13.60;;;3.28;;
36815;SDS011;71982;52.294;6.760;2023-09-19T05:54:33;17.23;;;3.22;;
36815;SDS011;71982;52.294;6.760;2023-09-19T05:57:03;12.48;;;2.50;;
36815;SDS011;71982;52.294;6.760;2023-09-19T05:59:51;11.90;;;2.60;;
36815;SDS011;71982;52.294;6.760;2023-09-19T06:02:21;15.10;;;3.53;;
36815;SDS011;71982;52.294;6.760;2023-09-19T06:04:48;17.48;;;3.80;;
36815;SDS011;71982;52.294;6.760;2023-09-19T06:07:20;16.27;;;2.90;;
36815;SDS011;71982;52.294;6.760;2023-09-19T06:09:55;21.35;;;3.58;;
36815;SDS011;71982;52.294;6.760;2023-09-19T06:12:25;11.25;;;2.22;;
36815;SDS011;71982;52.294;6.760;2023-09-19T06:14:55;20.33;;;4.50;;
36815;SDS011;71982;52.294;6.760;2023-09-19T06:17:33;18.05;;;3.40;;
36815;SDS011;71982;52.294;6.760;2023-09-19T06:20:03;20.60;;;2.95;;
36815;SDS011;71982;52.294;6.760;2023-09-19T06:22:35;15.18;;;3.25;;
36815;SDS011;71982;52.294;6.760;2023-09-19T06:25:04;19.17;;;3.65;;
36815;SDS011;71982;52.294;6.760;2023-09-19T06:27:34;15.32;;;2.53;;
36815;SDS011;71982;52.294;6.760;2023-09-19T06:30:05;16.65;;;2.78;;
36815;SDS011;71982;52.294;6.760;2023-09-19T06:32:36;13.68;;;3.15;;
36815;SDS011;71982;52.294;6.760;2023-09-19T06:35:03;17.58;;;4.05;;
36815;SDS011;71982;52.294;6.760;2023-09-19T06:37:36;10.52;;;2.97;;
36815;SDS011;71982;52.294;6.760;2023-09-19T06:40:04;10.77;;;2.80;;
36815;SDS011;71982;52.294;6.760;2023-09-19T06:42:34;16.05;;;3.33;;
36815;SDS011;71982;52.294;6.760;2023-09-19T06:45:02;9.75;;;2.50;;
36815;SDS011;71982;52.294;6.760;2023-09-19T06:47:31;16.33;;;2.53;;
36815;SDS011;71982;52.294;6.760;2023-09-19T06:49:58;14.13;;;2.58;;
36815;SDS011;71982;52.294;6.760;2023-09-19T06:52:27;14.13;;;3.33;;
36815;SDS011;71982;52.294;6.760;2023-09-19T06:54:54;10.90;;;2.72;;
36815;SDS011;71982;52.294;6.760;2023-09-19T06:57:22;12.90;;;3.28;;
36815;SDS011;71982;52.294;6.760;2023-09-19T06:59:49;12.82;;;3.25;;
36815;SDS011;71982;52.294;6.760;2023-09-19T07:02:18;23.90;;;4.15;;
36815;SDS011;71982;52.294;6.760;2023-09-19T07:04:47;14.38;;;2.80;;
36815;SDS011;71982;52.294;6.760;2023-09-19T07:07:14;17.20;;;2.70;;
36815;SDS011;71982;52.294;6.760;2023-09-19T07:09:42;15.73;;;2.67;;
36815;SDS011;71982;52.294;6.760;2023-09-19T07:12:08;13.77;;;2.10;;
36815;SDS011;71982;52.294;6.760;2023-09-19T07:14:37;16.52;;;3.58;;
36815;SDS011;71982;52.294;6.760;2023-09-19T07:17:03;12.48;;;3.22;;
36815;SDS011;71982;52.294;6.760;2023-09-19T07:19:32;16.55;;;3.42;;
36815;SDS011;71982;52.294;6.760;2023-09-19T07:22:01;16.52;;;3.83;;
36815;SDS011;71982;52.294;6.760;2023-09-19T07:24:28;15.25;;;3.60;;
36815;SDS011;71982;52.294;6.760;2023-09-19T07:27:02;15.00;;;3.35;;
36815;SDS011;71982;52.294;6.760;2023-09-19T07:29:36;14.63;;;3.28;;
36815;SDS011;71982;52.294;6.760;2023-09-19T07:32:04;12.13;;;2.55;;
36815;SDS011;71982;52.294;6.760;2023-09-19T07:34:33;12.23;;;2.75;;
36815;SDS011;71982;52.294;6.760;2023-09-19T07:37:00;11.38;;;2.78;;
36815;SDS011;71982;52.294;6.760;2023-09-19T07:39:27;13.45;;;2.88;;
36815;SDS011;71982;52.294;6.760;2023-09-19T07:42:02;13.70;;;3.85;;
36815;SDS011;71982;52.294;6.760;2023-09-19T07:44:29;14.27;;;3.80;;
36815;SDS011;71982;52.294;6.760;2023-09-19T07:46:56;11.88;;;3.08;;
36815;SDS011;71982;52.294;6.760;2023-09-19T07:49:23;17.65;;;3.42;;
36815;SDS011;71982;52.294;6.760;2023-09-19T07:51:55;15.68;;;3.30;;
36815;SDS011;71982;52.294;6.760;2023-09-19T07:54:25;12.77;;;3.50;;
36815;SDS011;71982;52.294;6.760;2023-09-19T07:57:00;20.55;;;3.08;;
36815;SDS011;71982;52.294;6.760;2023-09-19T08:01:54;13.52;;;2.85;;
36815;SDS011;71982;52.294;6.760;2023-09-19T08:04:26;10.23;;;2.75;;
36815;SDS011;71982;52.294;6.760;2023-09-19T08:06:57;12.57;;;2.92;;
36815;SDS011;71982;52.294;6.760;2023-09-19T08:09:25;13.80;;;3.08;;
36815;SDS011;71982;52.294;6.760;2023-09-19T08:11:56;12.57;;;2.75;;
36815;SDS011;71982;52.294;6.760;2023-09-19T08:14:23;12.05;;;2.92;;
36815;SDS011;71982;52.294;6.760;2023-09-19T08:16:56;17.15;;;3.38;;
36815;SDS011;71982;52.294;6.760;2023-09-19T08:19:23;14.80;;;2.75;;
36815;SDS011;71982;52.294;6.760;2023-09-19T08:21:56;20.65;;;3.85;;
36815;SDS011;71982;52.294;6.760;2023-09-19T08:24:28;15.07;;;3.03;;
36815;SDS011;71982;52.294;6.760;2023-09-19T08:26:56;11.88;;;2.65;;
36815;SDS011;71982;52.294;6.760;2023-09-19T08:29:33;10.43;;;2.53;;
36815;SDS011;71982;52.294;6.760;2023-09-19T08:32:00;15.00;;;3.75;;
36815;SDS011;71982;52.294;6.760;2023-09-19T08:34:31;17.35;;;3.45;;
36815;SDS011;71982;52.294;6.760;2023-09-19T08:37:04;17.30;;;3.05;;
36815;SDS011;71982;52.294;6.760;2023-09-19T08:39:35;20.63;;;5.07;;
36815;SDS011;71982;52.294;6.760;2023-09-19T08:42:05;18.83;;;3.03;;
36815;SDS011;71982;52.294;6.760;2023-09-19T08:44:35;21.85;;;4.68;;
36815;SDS011;71982;52.294;6.760;2023-09-19T08:47:08;15.88;;;3.13;;
36815;SDS011;71982;52.294;6.760;2023-09-19T08:49:39;17.45;;;3.03;;
36815;SDS011;71982;52.294;6.760;2023-09-19T08:52:22;13.55;;;2.72;;
36815;SDS011;71982;52.294;6.760;2023-09-19T08:54:54;16.35;;;3.65;;
36815;SDS011;71982;52.294;6.760;2023-09-19T08:57:30;14.32;;;3.53;;
36815;SDS011;71982;52.294;6.760;2023-09-19T09:00:01;15.20;;;3.13;;
36815;SDS011;71982;52.294;6.760;2023-09-19T09:02:29;11.18;;;2.65;;
36815;SDS011;71982;52.294;6.760;2023-09-19T09:04:59;13.93;;;2.83;;
36815;SDS011;71982;52.294;6.760;2023-09-19T09:07:27;18.15;;;3.85;;
36815;SDS011;71982;52.294;6.760;2023-09-19T09:09:55;18.85;;;2.67;;
36815;SDS011;71982;52.294;6.760;2023-09-19T09:12:25;11.88;;;2.90;;
36815;SDS011;71982;52.294;6.760;2023-09-19T09:14:52;13.50;;;3.10;;
36815;SDS011;71982;52.294;6.760;2023-09-19T09:17:18;18.85;;;3.83;;
36815;SDS011;71982;52.294;6.760;2023-09-19T09:19:48;13.85;;;2.65;;
36815;SDS011;71982;52.294;6.760;2023-09-19T09:22:15;19.85;;;3.10;;
36815;SDS011;71982;52.294;6.760;2023-09-19T09:24:52;14.98;;;3.47;;
36815;SDS011;71982;52.294;6.760;2023-09-19T09:27:22;16.40;;;3.90;;
36815;SDS011;71982;52.294;6.760;2023-09-19T09:29:52;13.40;;;2.75;;
36815;SDS011;71982;52.294;6.760;2023-09-19T09:32:21;19.02;;;3.22;;
36815;SDS011;71982;52.294;6.760;2023-09-19T09:34:50;12.25;;;2.85;;
36815;SDS011;71982;52.294;6.760;2023-09-19T09:37:23;18.23;;;3.80;;
36815;SDS011;71982;52.294;6.760;2023-09-19T09:39:56;15.18;;;3.03;;
36815;SDS011;71982;52.294;6.760;2023-09-19T09:42:44;16.92;;;3.42;;
36815;SDS011;71982;52.294;6.760;2023-09-19T09:45:12;22.05;;;4.68;;
36815;SDS011;71982;52.294;6.760;2023-09-19T09:47:53;13.35;;;2.60;;
36815;SDS011;71982;52.294;6.760;2023-09-19T09:50:25;15.20;;;3.45;;
36815;SDS011;71982;52.294;6.760;2023-09-19T09:53:21;19.20;;;3.97;;
36815;SDS011;71982;52.294;6.760;2023-09-19T09:56:04;13.20;;;2.70;;
36815;SDS011;71982;52.294;6.760;2023-09-19T09:58:32;13.65;;;3.22;;
36815;SDS011;71982;52.294;6.760;2023-09-19T10:01:03;19.45;;;3.70;;
36815;SDS011;71982;52.294;6.760;2023-09-19T10:03:37;19.08;;;3.83;;
36815;SDS011;71982;52.294;6.760;2023-09-19T10:06:06;9.43;;;2.72;;
36815;SDS011;71982;52.294;6.760;2023-09-19T10:08:59;15.88;;;3.22;;
36815;SDS011;71982;52.294;6.760;2023-09-19T10:11:33;12.70;;;3.08;;
36815;SDS011;71982;52.294;6.760;2023-09-19T10:14:04;15.52;;;3.38;;
36815;SDS011;71982;52.294;6.760;2023-09-19T10:16:35;13.93;;;2.90;;
36815;SDS011;71982;52.294;6.760;2023-09-19T10:19:16;18.52;;;4.20;;
36815;SDS011;71982;52.294;6.760;2023-09-19T10:21:50;15.93;;;3.60;;
36815;SDS011;71982;52.294;6.760;2023-09-19T10:24:25;19.05;;;5.20;;
36815;SDS011;71982;52.294;6.760;2023-09-19T10:26:59;10.32;;;2.58;;
36815;SDS011;71982;52.294;6.760;2023-09-19T10:29:28;14.60;;;2.72;;
36815;SDS011;71982;52.294;6.760;2023-09-19T10:32:01;13.95;;;3.10;;
36815;SDS011;71982;52.294;6.760;2023-09-19T10:34:31;15.60;;;3.35;;
36815;SDS011;71982;52.294;6.760;2023-09-19T10:37:00;13.93;;;2.67;;
36815;SDS011;71982;52.294;6.760;2023-09-19T10:39:30;14.93;;;2.97;;
36815;SDS011;71982;52.294;6.760;2023-09-19T10:42:01;13.68;;;3.15;;
36815;SDS011;71982;52.294;6.760;2023-09-19T10:44:31;11.13;;;2.78;;
36815;SDS011;71982;52.294;6.760;2023-09-19T10:47:02;11.85;;;2.42;;
36815;SDS011;71982;52.294;6.760;2023-09-19T10:49:32;17.73;;;3.92;;
36815;SDS011;71982;52.294;6.760;2023-09-19T10:52:10;14.15;;;2.60;;
36815;SDS011;71982;52.294;6.760;2023-09-19T10:54:48;14.73;;;3.38;;
36815;SDS011;71982;52.294;6.760;2023-09-19T10:57:25;9.85;;;3.08;;
36815;SDS011;71982;52.294;6.760;2023-09-19T11:00:02;17.67;;;3.10;;
36815;SDS011;71982;52.294;6.760;2023-09-19T11:02:44;15.68;;;3.00;;
36815;SDS011;71982;52.294;6.760;2023-09-19T11:05:32;14.27;;;3.05;;
36815;SDS011;71982;52.294;6.760;2023-09-19T11:07:59;11.70;;;2.75;;
36815;SDS011;71982;52.294;6.760;2023-09-19T11:13:25;10.90;;;2.17;;
36815;SDS011;71982;52.294;6.760;2023-09-19T11:16:17;11.30;;;2.95;;
36815;SDS011;71982;52.294;6.760;2023-09-19T11:18:54;14.93;;;3.50;;
36815;SDS011;71982;52.294;6.760;2023-09-19T11:21:38;14.05;;;2.80;;
36815;SDS011;71982;52.294;6.760;2023-09-19T11:24:31;9.48;;;2.17;;
36815;SDS011;71982;52.294;6.760;2023-09-19T11:27:14;12.90;;;2.45;;
36815;SDS011;71982;52.294;6.760;2023-09-19T11:29:46;13.18;;;2.70;;
36815;SDS011;71982;52.294;6.760;2023-09-19T11:32:14;15.35;;;3.08;;
36815;SDS011;71982;52.294;6.760;2023-09-19T11:34:47;12.57;;;2.53;;
36815;SDS011;71982;52.294;6.760;2023-09-19T11:40:25;18.15;;;2.83;;
36815;SDS011;71982;52.294;6.760;2023-09-19T11:42:53;13.82;;;3.13;;
36815;SDS011;71982;52.294;6.760;2023-09-19T11:48:31;15.98;;;3.22;;
36815;SDS011;71982;52.294;6.760;2023-09-19T11:51:00;13.88;;;2.95;;
36815;SDS011;71982;52.294;6.760;2023-09-19T11:53:32;11.73;;;2.33;;
36815;SDS011;71982;52.294;6.760;2023-09-19T11:56:01;8.15;;;2.00;;
36815;SDS011;71982;52.294;6.760;2023-09-19T11:58:32;14.18;;;3.20;;
36815;SDS011;71982;52.294;6.760;2023-09-19T12:01:01;11.65;;;2.83;;
36815;SDS011;71982;52.294;6.760;2023-09-19T12:03:34;12.93;;;2.72;;
36815;SDS011;71982;52.294;6.760;2023-09-19T12:06:10;15.80;;;3.05;;
36815;SDS011;71982;52.294;6.760;2023-09-19T12:08:39;12.50;;;3.05;;
36815;SDS011;71982;52.294;6.760;2023-09-19T12:11:11;13.98;;;2.63;;
36815;SDS011;71982;52.294;6.760;2023-09-19T12:13:41;11.65;;;2.63;;
36815;SDS011;71982;52.294;6.760;2023-09-19T12:16:13;12.13;;;2.75;;
36815;SDS011;71982;52.294;6.760;2023-09-19T12:18:43;6.68;;;1.92;;
36815;SDS011;71982;52.294;6.760;2023-09-19T12:21:23;13.98;;;2.92;;
36815;SDS011;71982;52.294;6.760;2023-09-19T12:23:58;19.50;;;2.97;;
36815;SDS011;71982;52.294;6.760;2023-09-19T12:26:29;10.30;;;2.50;;
36815;SDS011;71982;52.294;6.760;2023-09-19T12:28:59;15.98;;;2.45;;
36815;SDS011;71982;52.294;6.760;2023-09-19T12:31:26;11.45;;;3.08;;
36815;SDS011;71982;52.294;6.760;2023-09-19T12:33:56;16.02;;;3.42;;
36815;SDS011;71982;52.294;6.760;2023-09-19T12:36:26;13.60;;;2.95;;
36815;SDS011;71982;52.294;6.760;2023-09-19T12:38:59;11.18;;;2.80;;
36815;SDS011;71982;52.294;6.760;2023-09-19T12:41:31;14.88;;;3.08;;
36815;SDS011;71982;52.294;6.760;2023-09-19T12:43:58;8.43;;;2.05;;
36815;SDS011;71982;52.294;6.760;2023-09-19T12:46:26;11.50;;;2.72;;
36815;SDS011;71982;52.294;6.760;2023-09-19T12:51:45;8.48;;;1.98;;
36815;SDS011;71982;52.294;6.760;2023-09-19T12:54:13;16.98;;;2.85;;
36815;SDS011;71982;52.294;6.760;2023-09-19T12:56:41;11.55;;;2.72;;
36815;SDS011;71982;52.294;6.760;2023-09-19T12:59:12;12.32;;;2.20;;
36815;SDS011;71982;52.294;6.760;2023-09-19T13:01:40;13.80;;;2.55;;
36815;SDS011;71982;52.294;6.760;2023-09-19T13:04:20;11.57;;;2.40;;
36815;SDS011;71982;52.294;6.760;2023-09-19T13:06:52;10.48;;;2.05;;
36815;SDS011;71982;52.294;6.760;2023-09-19T13:09:20;12.43;;;2.20;;
36815;SDS011;71982;52.294;6.760;2023-09-19T13:11:50;8.18;;;2.35;;
36815;SDS011;71982;52.294;6.760;2023-09-19T13:14:26;7.72;;;2.00;;
36815;SDS011;71982;52.294;6.760;2023-09-19T13:16:57;8.85;;;1.90;;
36815;SDS011;71982;52.294;6.760;2023-09-19T13:19:41;12.23;;;2.22;;
36815;SDS011;71982;52.294;6.760;2023-09-19T13:25:07;10.13;;;2.35;;
36815;SDS011;71982;52.294;6.760;2023-09-19T13:27:38;8.43;;;2.05;;
36815;SDS011;71982;52.294;6.760;2023-09-19T13:30:06;12.63;;;1.92;;
36815;SDS011;71982;52.294;6.760;2023-09-19T13:32:34;15.07;;;3.20;;
36815;SDS011;71982;52.294;6.760;2023-09-19T13:35:04;6.40;;;1.83;;
36815;SDS011;71982;52.294;6.760;2023-09-19T13:37:33;18.98;;;2.83;;
36815;SDS011;71982;52.294;6.760;2023-09-19T13:40:01;12.68;;;2.45;;
36815;SDS011;71982;52.294;6.760;2023-09-19T13:42:30;12.95;;;2.30;;
36815;SDS011;71982;52.294;6.760;2023-09-19T13:45:01;9.60;;;1.73;;
36815;SDS011;71982;52.294;6.760;2023-09-19T13:47:29;11.43;;;2.10;;
36815;SDS011;71982;52.294;6.760;2023-09-19T13:49:56;15.90;;;2.45;;
36815;SDS011;71982;52.294;6.760;2023-09-19T13:52:24;10.88;;;2.72;;
36815;SDS011;71982;52.294;6.760;2023-09-19T13:54:56;7.53;;;1.85;;
36815;SDS011;71982;52.294;6.760;2023-09-19T13:57:25;8.15;;;2.17;;
36815;SDS011;71982;52.294;6.760;2023-09-19T13:59:55;8.15;;;2.15;;
36815;SDS011;71982;52.294;6.760;2023-09-19T14:02:22;9.20;;;2.10;;
36815;SDS011;71982;52.294;6.760;2023-09-19T14:04:50;7.40;;;2.05;;
36815;SDS011;71982;52.294;6.760;2023-09-19T14:07:28;9.50;;;2.33;;
36815;SDS011;71982;52.294;6.760;2023-09-19T14:09:55;5.10;;;1.95;;
36815;SDS011;71982;52.294;6.760;2023-09-19T14:12:22;8.68;;;2.17;;
36815;SDS011;71982;52.294;6.760;2023-09-19T14:14:59;9.73;;;2.42;;
36815;SDS011;71982;52.294;6.760;2023-09-19T14:17:26;8.18;;;1.63;;
36815;SDS011;71982;52.294;6.760;2023-09-19T14:19:53;8.60;;;1.85;;
36815;SDS011;71982;52.294;6.760;2023-09-19T14:22:20;8.48;;;1.98;;
36815;SDS011;71982;52.294;6.760;2023-09-19T14:24:51;6.35;;;2.10;;
36815;SDS011;71982;52.294;6.760;2023-09-19T14:27:22;8.13;;;2.15;;
36815;SDS011;71982;52.294;6.760;2023-09-19T14:29:53;7.90;;;1.60;;
36815;SDS011;71982;52.294;6.760;2023-09-19T14:32:20;7.70;;;2.05;;
36815;SDS011;71982;52.294;6.760;2023-09-19T14:34:47;5.82;;;1.58;;
36815;SDS011;71982;52.294;6.760;2023-09-19T14:37:19;9.15;;;1.70;;
36815;SDS011;71982;52.294;6.760;2023-09-19T14:39:48;5.32;;;1.42;;
36815;SDS011;71982;52.294;6.760;2023-09-19T14:42:17;13.38;;;1.52;;
36815;SDS011;71982;52.294;6.760;2023-09-19T14:44:44;6.82;;;1.10;;
36815;SDS011;71982;52.294;6.760;2023-09-19T14:47:12;5.47;;;1.50;;
36815;SDS011;71982;52.294;6.760;2023-09-19T14:49:39;4.78;;;1.52;;
36815;SDS011;71982;52.294;6.760;2023-09-19T14:52:07;5.13;;;1.10;;
36815;SDS011;71982;52.294;6.760;2023-09-19T14:54:34;10.75;;;1.80;;
36815;SDS011;71982;52.294;6.760;2023-09-19T14:57:04;5.70;;;1.45;;
36815;SDS011;71982;52.294;6.760;2023-09-19T14:59:33;6.07;;;1.80;;
36815;SDS011;71982;52.294;6.760;2023-09-19T15:02:02;7.32;;;1.50;;
36815;SDS011;71982;52.294;6.760;2023-09-19T15:04:29;10.43;;;2.72;;
36815;SDS011;71982;52.294;6.760;2023-09-19T15:06:56;7.18;;;1.65;;
36815;SDS011;71982;52.294;6.760;2023-09-19T15:09:23;5.90;;;1.40;;
36815;SDS011;71982;52.294;6.760;2023-09-19T15:11:51;5.32;;;1.58;;
36815;SDS011;71982;52.294;6.760;2023-09-19T15:14:19;5.68;;;1.48;;